aviador You're here:

KASD Decoded Metar

SLIDELL 22 in LA, USA
Report Time2017-06-25 18:53:00
UTC Time2017-06-25 19:12:20
Flight Rules vfr VFR
Wind010° at 12 kt
W.Decomp.*RWY 36: 11.9 kt HW 1.7 kt RCW
W.Rank010° ranks 1
Current wind is above 010° avg. (5.9)
Visibility9999 m
Phenomena:N/A
Clouds:Broken 032 Hf
Expected CloudBase > 3,600 ft AGL from Temp-Dew spread
Ceiling3,200 ft
Temp31°C (ISA +16)
Dew Point22°C (59% RH)
Heat Index34.6°C
QNH1020 hPa
Density Alt1,982 ft
Elevation30 ft
Report Wrong Elevation
Raw Report
KASD 251853Z AUTO 01012KT 10SM BKN032 31/22 A3011 RMK AO2 LTG DSNT
S SLP194 T03110222=

Extra information for KASD:More info

Metar Taf Metar & Taf Last 4 Metars F.Rules Stats Wind Profile Meteogram Temp Stats Airport Information Weather charts Add Link Nearby VenuesMetar ALERT Operation Metar Decoded Social comments

AIRNAV info for KASD